sensor_id;sensor_type;location;lat;lon;timestamp;pressure;altitude;pressure_sealevel;temperature;humidity
11542;BME280;5827;49.482;7.716;2023-03-04T00:00:51;99523.25;;;0.70;100.00
11542;BME280;5827;49.482;7.716;2023-03-04T00:02:53;99520.94;;;0.67;100.00
11542;BME280;5827;49.482;7.716;2023-03-04T00:04:56;99527.72;;;0.86;100.00
11542;BME280;5827;49.482;7.716;2023-03-04T00:06:57;99531.66;;;0.82;100.00
11542;BME280;5827;49.482;7.716;2023-03-04T00:08:59;99516.34;;;0.69;100.00
11542;BME280;5827;49.482;7.716;2023-03-04T00:11:00;99525.25;;;0.85;100.00
11542;BME280;5827;49.482;7.716;2023-03-04T00:13:02;99526.53;;;0.64;100.00
11542;BME280;5827;49.482;7.716;2023-03-04T00:15:04;99528.53;;;0.87;100.00
11542;BME280;5827;49.482;7.716;2023-03-04T00:17:06;99520.06;;;0.59;100.00
11542;BME280;5827;49.482;7.716;2023-03-04T00:19:09;99527.88;;;0.76;100.00
11542;BME280;5827;49.482;7.716;2023-03-04T00:21:12;99520.78;;;0.77;100.00
11542;BME280;5827;49.482;7.716;2023-03-04T00:23:13;99528.22;;;0.90;100.00
11542;BME280;5827;49.482;7.716;2023-03-04T00:25:15;99523.44;;;0.85;100.00
11542;BME280;5827;49.482;7.716;2023-03-04T00:27:16;99529.66;;;0.68;100.00
11542;BME280;5827;49.482;7.716;2023-03-04T00:29:18;99521.97;;;0.83;100.00
11542;BME280;5827;49.482;7.716;2023-03-04T00:31:21;99518.00;;;0.79;100.00
11542;BME280;5827;49.482;7.716;2023-03-04T00:33:22;99519.94;;;0.60;100.00
11542;BME280;5827;49.482;7.716;2023-03-04T00:35:24;99510.88;;;0.63;100.00
11542;BME280;5827;49.482;7.716;2023-03-04T00:37:26;99519.44;;;0.73;100.00
11542;BME280;5827;49.482;7.716;2023-03-04T00:39:28;99518.13;;;0.61;100.00
11542;BME280;5827;49.482;7.716;2023-03-04T00:41:30;99521.06;;;0.58;100.00
11542;BME280;5827;49.482;7.716;2023-03-04T00:43:31;99519.59;;;0.63;100.00
11542;BME280;5827;49.482;7.716;2023-03-04T00:45:33;99523.91;;;0.64;100.00
11542;BME280;5827;49.482;7.716;2023-03-04T00:47:34;99519.59;;;0.63;100.00
11542;BME280;5827;49.482;7.716;2023-03-04T00:49:36;99516.97;;;0.55;100.00
11542;BME280;5827;49.482;7.716;2023-03-04T00:51:38;99522.03;;;0.48;100.00
11542;BME280;5827;49.482;7.716;2023-03-04T00:53:40;99511.97;;;0.44;100.00
11542;BME280;5827;49.482;7.716;2023-03-04T00:55:42;99519.88;;;0.44;100.00
11542;BME280;5827;49.482;7.716;2023-03-04T00:57:43;99515.06;;;0.39;100.00
11542;BME280;5827;49.482;7.716;2023-03-04T00:59:45;99515.59;;;0.43;100.00
11542;BME280;5827;49.482;7.716;2023-03-04T01:01:46;99523.34;;;0.44;100.00
11542;BME280;5827;49.482;7.716;2023-03-04T01:03:48;99522.16;;;0.39;100.00
11542;BME280;5827;49.482;7.716;2023-03-04T01:05:49;99518.50;;;0.32;99.80
11542;BME280;5827;49.482;7.716;2023-03-04T01:07:51;99524.03;;;0.12;99.49
11542;BME280;5827;49.482;7.716;2023-03-04T01:09:54;99519.75;;;0.11;99.19
11542;BME280;5827;49.482;7.716;2023-03-04T01:11:55;99524.03;;;0.12;100.00
11542;BME280;5827;49.482;7.716;2023-03-04T01:13:57;99519.09;;;0.09;99.00
11542;BME280;5827;49.482;7.716;2023-03-04T01:15:59;99518.22;;;0.01;98.84
11542;BME280;5827;49.482;7.716;2023-03-04T01:18:02;99514.38;;;-0.05;99.53
11542;BME280;5827;49.482;7.716;2023-03-04T01:20:05;99516.59;;;-0.27;98.86
11542;BME280;5827;49.482;7.716;2023-03-04T01:22:07;99510.75;;;-0.12;99.76
11542;BME280;5827;49.482;7.716;2023-03-04T01:24:10;99512.22;;;-0.10;99.23
11542;BME280;5827;49.482;7.716;2023-03-04T01:26:12;99514.84;;;-0.10;98.93
11542;BME280;5827;49.482;7.716;2023-03-04T01:28:14;99514.03;;;-0.10;98.78
11542;BME280;5827;49.482;7.716;2023-03-04T01:30:16;99507.13;;;-0.11;98.03
11542;BME280;5827;49.482;7.716;2023-03-04T01:32:17;99510.69;;;-0.20;98.33
11542;BME280;5827;49.482;7.716;2023-03-04T01:34:19;99509.69;;;-0.19;98.46
11542;BME280;5827;49.482;7.716;2023-03-04T01:36:20;99500.63;;;-0.25;98.02
11542;BME280;5827;49.482;7.716;2023-03-04T01:38:22;99503.72;;;-0.30;98.16
11542;BME280;5827;49.482;7.716;2023-03-04T01:40:24;99497.09;;;-0.34;97.95
11542;BME280;5827;49.482;7.716;2023-03-04T01:42:29;99487.81;;;-0.46;97.62
11542;BME280;5827;49.482;7.716;2023-03-04T01:44:31;99491.66;;;-0.40;97.62
11542;BME280;5827;49.482;7.716;2023-03-04T01:46:33;99482.63;;;-0.64;97.83
11542;BME280;5827;49.482;7.716;2023-03-04T01:48:36;99480.84;;;-0.55;98.13
11542;BME280;5827;49.482;7.716;2023-03-04T01:50:38;99473.34;;;-0.50;97.83
11542;BME280;5827;49.482;7.716;2023-03-04T01:52:40;99478.06;;;-0.54;98.33
11542;BME280;5827;49.482;7.716;2023-03-04T01:54:42;99474.28;;;-0.51;98.43
11542;BME280;5827;49.482;7.716;2023-03-04T01:56:46;99475.28;;;-0.52;98.15
11542;BME280;5827;49.482;7.716;2023-03-04T01:59:07;99474.47;;;-0.53;98.10
11542;BME280;5827;49.482;7.716;2023-03-04T02:01:10;99467.09;;;-0.49;98.37
11542;BME280;5827;49.482;7.716;2023-03-04T02:03:15;99466.75;;;-0.46;99.20
11542;BME280;5827;49.482;7.716;2023-03-04T02:05:19;99471.41;;;-0.40;100.00
11542;BME280;5827;49.482;7.716;2023-03-04T02:07:21;99457.38;;;-0.48;100.00
11542;BME280;5827;49.482;7.716;2023-03-04T02:09:23;99457.91;;;-0.45;100.00
11542;BME280;5827;49.482;7.716;2023-03-04T02:11:25;99452.66;;;-0.37;100.00
11542;BME280;5827;49.482;7.716;2023-03-04T02:13:27;99457.44;;;-0.40;100.00
11542;BME280;5827;49.482;7.716;2023-03-04T02:15:29;99466.41;;;-0.51;100.00
11542;BME280;5827;49.482;7.716;2023-03-04T02:17:31;99457.63;;;-0.60;100.00
11542;BME280;5827;49.482;7.716;2023-03-04T02:19:41;99458.25;;;-0.66;100.00
11542;BME280;5827;49.482;7.716;2023-03-04T02:21:44;99454.63;;;-0.65;100.00
11542;BME280;5827;49.482;7.716;2023-03-04T02:23:50;99450.53;;;-0.67;100.00
11542;BME280;5827;49.482;7.716;2023-03-04T02:26:10;99447.75;;;-0.84;98.11
11542;BME280;5827;49.482;7.716;2023-03-04T02:28:12;99455.38;;;-0.98;96.71
11542;BME280;5827;49.482;7.716;2023-03-04T02:30:15;99452.00;;;-1.09;97.25
11542;BME280;5827;49.482;7.716;2023-03-04T02:32:18;99450.38;;;-1.27;97.41
11542;BME280;5827;49.482;7.716;2023-03-04T02:34:21;99451.78;;;-1.15;97.62
11542;BME280;5827;49.482;7.716;2023-03-04T02:36:24;99446.88;;;-1.10;96.78
11542;BME280;5827;49.482;7.716;2023-03-04T02:38:26;99453.00;;;-1.10;97.07
11542;BME280;5827;49.482;7.716;2023-03-04T02:40:29;99450.38;;;-1.10;96.82
11542;BME280;5827;49.482;7.716;2023-03-04T02:42:33;99446.75;;;-1.09;96.54
11542;BME280;5827;49.482;7.716;2023-03-04T02:44:36;99445.94;;;-1.09;96.25
11542;BME280;5827;49.482;7.716;2023-03-04T02:46:37;99446.06;;;-1.11;96.24
11542;BME280;5827;49.482;7.716;2023-03-04T02:48:39;99448.41;;;-1.25;95.73
11542;BME280;5827;49.482;7.716;2023-03-04T02:50:43;99442.34;;;-1.26;95.50
11542;BME280;5827;49.482;7.716;2023-03-04T02:52:45;99447.75;;;-1.27;95.91
11542;BME280;5827;49.482;7.716;2023-03-04T02:54:47;99443.78;;;-1.32;96.47
11542;BME280;5827;49.482;7.716;2023-03-04T02:56:50;99450.84;;;-1.32;95.78
11542;BME280;5827;49.482;7.716;2023-03-04T02:58:53;99449.41;;;-1.26;95.77
11542;BME280;5827;49.482;7.716;2023-03-04T03:00:55;99449.22;;;-1.25;95.71
11542;BME280;5827;49.482;7.716;2023-03-04T03:02:56;99447.88;;;-1.29;95.64
11542;BME280;5827;49.482;7.716;2023-03-04T03:04:58;99445.94;;;-1.27;95.43
11542;BME280;5827;49.482;7.716;2023-03-04T03:06:59;99446.94;;;-1.28;95.64
11542;BME280;5827;49.482;7.716;2023-03-04T03:09:02;99444.75;;;-1.33;96.55
11542;BME280;5827;49.482;7.716;2023-03-04T03:11:04;99441.59;;;-1.36;96.58
11542;BME280;5827;49.482;7.716;2023-03-04T03:13:05;99442.25;;;-1.34;96.65
11542;BME280;5827;49.482;7.716;2023-03-04T03:15:09;99450.06;;;-1.42;96.24
11542;BME280;5827;49.482;7.716;2023-03-04T03:17:10;99441.22;;;-1.41;96.19
11542;BME280;5827;49.482;7.716;2023-03-04T03:19:12;99437.91;;;-1.43;95.99
11542;BME280;5827;49.482;7.716;2023-03-04T03:21:13;99443.84;;;-1.41;96.14
11542;BME280;5827;49.482;7.716;2023-03-04T03:23:15;99440.69;;;-1.45;95.89
11542;BME280;5827;49.482;7.716;2023-03-04T03:25:17;99441.13;;;-1.49;95.95
11542;BME280;5827;49.482;7.716;2023-03-04T03:27:19;99434.91;;;-1.48;96.55
11542;BME280;5827;49.482;7.716;2023-03-04T03:29:20;99441.78;;;-1.47;96.16
11542;BME280;5827;49.482;7.716;2023-03-04T03:31:23;99441.28;;;-1.51;95.81
11542;BME280;5827;49.482;7.716;2023-03-04T03:33:24;99441.56;;;-1.54;95.68
11542;BME280;5827;49.482;7.716;2023-03-04T03:35:26;99441.88;;;-1.57;95.86
11542;BME280;5827;49.482;7.716;2023-03-04T03:37:28;99450.56;;;-1.57;95.58
11542;BME280;5827;49.482;7.716;2023-03-04T03:39:29;99451.19;;;-1.63;95.15
11542;BME280;5827;49.482;7.716;2023-03-04T03:41:31;99450.41;;;-1.73;95.42
11542;BME280;5827;49.482;7.716;2023-03-04T03:43:32;99443.38;;;-1.72;96.02
11542;BME280;5827;49.482;7.716;2023-03-04T03:45:34;99442.28;;;-1.80;97.23
11542;BME280;5827;49.482;7.716;2023-03-04T03:47:37;99442.66;;;-1.74;97.20
11542;BME280;5827;49.482;7.716;2023-03-04T03:49:38;99433.69;;;-1.72;97.50
11542;BME280;5827;49.482;7.716;2023-03-04T03:51:40;99445.81;;;-1.71;96.85
11542;BME280;5827;49.482;7.716;2023-03-04T03:53:41;99447.09;;;-1.75;97.31
11542;BME280;5827;49.482;7.716;2023-03-04T03:55:43;99443.66;;;-1.75;97.19
11542;BME280;5827;49.482;7.716;2023-03-04T03:57:44;99441.84;;;-1.75;98.22
11542;BME280;5827;49.482;7.716;2023-03-04T03:59:46;99447.03;;;-1.83;97.39
11542;BME280;5827;49.482;7.716;2023-03-04T04:01:47;99437.63;;;-1.86;96.81
11542;BME280;5827;49.482;7.716;2023-03-04T04:03:50;99439.28;;;-1.85;97.57
11542;BME280;5827;49.482;7.716;2023-03-04T04:05:52;99442.28;;;-1.80;97.50
11542;BME280;5827;49.482;7.716;2023-03-04T04:07:53;99445.91;;;-1.81;96.83
11542;BME280;5827;49.482;7.716;2023-03-04T04:09:55;99442.94;;;-1.95;96.18
11542;BME280;5827;49.482;7.716;2023-03-04T04:11:57;99441.38;;;-1.88;96.58
11542;BME280;5827;49.482;7.716;2023-03-04T04:13:58;99446.69;;;-1.98;95.43
11542;BME280;5827;49.482;7.716;2023-03-04T04:16:00;99443.53;;;-2.01;95.95
11542;BME280;5827;49.482;7.716;2023-03-04T04:18:02;99443.38;;;-2.00;95.97
11542;BME280;5827;49.482;7.716;2023-03-04T04:20:07;99446.22;;;-1.93;96.56
11542;BME280;5827;49.482;7.716;2023-03-04T04:22:14;99449.03;;;-1.95;95.86
11542;BME280;5827;49.482;7.716;2023-03-04T04:24:18;99448.19;;;-1.95;95.68
11542;BME280;5827;49.482;7.716;2023-03-04T04:26:19;99447.94;;;-2.02;96.22
11542;BME280;5827;49.482;7.716;2023-03-04T04:28:21;99441.88;;;-2.02;96.21
11542;BME280;5827;49.482;7.716;2023-03-04T04:30:22;99440.06;;;-2.02;96.68
11542;BME280;5827;49.482;7.716;2023-03-04T04:32:24;99439.78;;;-1.99;96.49
11542;BME280;5827;49.482;7.716;2023-03-04T04:34:25;99435.13;;;-2.05;96.07
11542;BME280;5827;49.482;7.716;2023-03-04T04:36:28;99434.81;;;-2.02;97.15
11542;BME280;5827;49.482;7.716;2023-03-04T04:38:30;99438.72;;;-2.06;96.88
11542;BME280;5827;49.482;7.716;2023-03-04T04:40:32;99438.19;;;-2.10;96.37
11542;BME280;5827;49.482;7.716;2023-03-04T04:42:33;99438.63;;;-2.14;96.35
11542;BME280;5827;49.482;7.716;2023-03-04T04:44:35;99442.22;;;-2.15;96.47
11542;BME280;5827;49.482;7.716;2023-03-04T04:46:38;99444.69;;;-2.14;96.28
11542;BME280;5827;49.482;7.716;2023-03-04T04:48:40;99448.41;;;-2.16;96.27
11542;BME280;5827;49.482;7.716;2023-03-04T04:50:42;99442.22;;;-2.15;96.85
11542;BME280;5827;49.482;7.716;2023-03-04T04:52:45;99441.78;;;-2.11;97.21
11542;BME280;5827;49.482;7.716;2023-03-04T04:54:46;99441.47;;;-2.08;97.00
11542;BME280;5827;49.482;7.716;2023-03-04T04:56:48;99440.41;;;-2.15;96.77
11542;BME280;5827;49.482;7.716;2023-03-04T04:58:49;99443.16;;;-2.16;97.69
11542;BME280;5827;49.482;7.716;2023-03-04T05:00:51;99444.31;;;-2.19;96.79
11542;BME280;5827;49.482;7.716;2023-03-04T05:02:52;99438.78;;;-2.25;96.80
11542;BME280;5827;49.482;7.716;2023-03-04T05:04:54;99444.63;;;-2.32;96.52
11542;BME280;5827;49.482;7.716;2023-03-04T05:06:55;99448.78;;;-2.29;96.45
11542;BME280;5827;49.482;7.716;2023-03-04T05:08:58;99454.31;;;-2.32;96.10
11542;BME280;5827;49.482;7.716;2023-03-04T05:11:01;99451.53;;;-2.31;95.73
11542;BME280;5827;49.482;7.716;2023-03-04T05:13:03;99455.16;;;-2.41;95.51
11542;BME280;5827;49.482;7.716;2023-03-04T05:15:05;99452.09;;;-2.37;95.80
11542;BME280;5827;49.482;7.716;2023-03-04T05:17:07;99443.81;;;-2.32;95.74
11542;BME280;5827;49.482;7.716;2023-03-04T05:19:09;99461.47;;;-2.34;95.10
11542;BME280;5827;49.482;7.716;2023-03-04T05:21:10;99448.78;;;-2.29;95.33
11542;BME280;5827;49.482;7.716;2023-03-04T05:23:11;99454.16;;;-2.31;95.24
11542;BME280;5827;49.482;7.716;2023-03-04T05:25:15;99453.59;;;-2.24;95.36
11542;BME280;5827;49.482;7.716;2023-03-04T05:27:16;99445.66;;;-2.42;95.58
11542;BME280;5827;49.482;7.716;2023-03-04T05:29:17;99453.88;;;-2.27;96.14
11542;BME280;5827;49.482;7.716;2023-03-04T05:31:19;99451.25;;;-2.27;96.16
11542;BME280;5827;49.482;7.716;2023-03-04T05:33:20;99452.84;;;-2.17;96.39
11542;BME280;5827;49.482;7.716;2023-03-04T05:35:22;99454.75;;;-2.09;95.93
11542;BME280;5827;49.482;7.716;2023-03-04T05:37:23;99456.13;;;-2.05;95.74
11542;BME280;5827;49.482;7.716;2023-03-04T05:39:25;99452.19;;;-2.19;95.82
11542;BME280;5827;49.482;7.716;2023-03-04T05:41:28;99448.13;;;-2.13;96.45
11542;BME280;5827;49.482;7.716;2023-03-04T05:43:30;99450.81;;;-2.23;96.62
11542;BME280;5827;49.482;7.716;2023-03-04T05:45:33;99454.31;;;-2.05;95.77
11542;BME280;5827;49.482;7.716;2023-03-04T05:47:35;99455.09;;;-2.22;96.13
11542;BME280;5827;49.482;7.716;2023-03-04T05:49:36;99456.94;;;-2.05;96.08
11542;BME280;5827;49.482;7.716;2023-03-04T05:51:38;99453.06;;;-2.00;95.82
11542;BME280;5827;49.482;7.716;2023-03-04T05:53:40;99453.59;;;-1.97;95.48
11542;BME280;5827;49.482;7.716;2023-03-04T05:55:45;99443.44;;;-2.10;95.12
11542;BME280;5827;49.482;7.716;2023-03-04T05:57:48;99448.56;;;-1.90;95.66
11542;BME280;5827;49.482;7.716;2023-03-04T05:59:49;99456.47;;;-1.90;95.40
11542;BME280;5827;49.482;7.716;2023-03-04T06:01:51;99450.81;;;-1.95;95.11
11542;BME280;5827;49.482;7.716;2023-03-04T06:03:52;99459.03;;;-1.81;95.22
11542;BME280;5827;49.482;7.716;2023-03-04T06:05:54;99460.66;;;-1.80;95.63
11542;BME280;5827;49.482;7.716;2023-03-04T06:07:56;99458.91;;;-1.89;95.84
11542;BME280;5827;49.482;7.716;2023-03-04T06:09:57;99464.81;;;-1.77;95.86
11542;BME280;5827;49.482;7.716;2023-03-04T06:11:59;99470.53;;;-1.64;95.19
11542;BME280;5827;49.482;7.716;2023-03-04T06:14:02;99469.41;;;-1.61;94.47
11542;BME280;5827;49.482;7.716;2023-03-04T06:16:04;99466.66;;;-1.60;93.97
11542;BME280;5827;49.482;7.716;2023-03-04T06:18:06;99471.59;;;-1.57;94.13
11542;BME280;5827;49.482;7.716;2023-03-04T06:20:10;99469.34;;;-1.51;94.23
11542;BME280;5827;49.482;7.716;2023-03-04T06:22:12;99472.38;;;-1.46;93.60
11542;BME280;5827;49.482;7.716;2023-03-04T06:24:13;99475.38;;;-1.41;94.11
11542;BME280;5827;49.482;7.716;2023-03-04T06:26:15;99468.25;;;-1.31;94.74
11542;BME280;5827;49.482;7.716;2023-03-04T06:28:16;99474.16;;;-1.29;94.68
11542;BME280;5827;49.482;7.716;2023-03-04T06:30:19;99473.72;;;-1.24;94.49
11542;BME280;5827;49.482;7.716;2023-03-04T06:32:21;99479.97;;;-1.25;94.21
11542;BME280;5827;49.482;7.716;2023-03-04T06:34:22;99481.47;;;-1.23;94.31
11542;BME280;5827;49.482;7.716;2023-03-04T06:36:24;99478.69;;;-1.21;93.71
11542;BME280;5827;49.482;7.716;2023-03-04T06:38:25;99480.41;;;-1.12;94.18
11542;BME280;5827;49.482;7.716;2023-03-04T06:40:27;99489.41;;;-1.15;93.65
11542;BME280;5827;49.482;7.716;2023-03-04T06:42:29;99486.78;;;-1.15;93.05
11542;BME280;5827;49.482;7.716;2023-03-04T06:44:30;99493.41;;;-1.11;93.02
11542;BME280;5827;49.482;7.716;2023-03-04T06:46:34;99497.31;;;-1.15;93.66
11542;BME280;5827;49.482;7.716;2023-03-04T06:48:36;99494.09;;;-1.26;93.83
11542;BME280;5827;49.482;7.716;2023-03-04T06:50:38;99493.34;;;-1.19;94.26
11542;BME280;5827;49.482;7.716;2023-03-04T06:52:40;99503.63;;;-1.08;94.33
11542;BME280;5827;49.482;7.716;2023-03-04T06:54:41;99497.16;;;-1.13;93.63
11542;BME280;5827;49.482;7.716;2023-03-04T06:56:43;99501.72;;;-0.97;93.18
11542;BME280;5827;49.482;7.716;2023-03-04T06:58:45;99504.72;;;-0.92;93.69
11542;BME280;5827;49.482;7.716;2023-03-04T07:00:46;99503.81;;;-0.83;92.56
11542;BME280;5827;49.482;7.716;2023-03-04T07:02:49;99504.00;;;-1.20;93.83
11542;BME280;5827;49.482;7.716;2023-03-04T07:04:51;99500.63;;;-0.95;94.90
11542;BME280;5827;49.482;7.716;2023-03-04T07:06:52;99504.97;;;-0.86;94.85
11542;BME280;5827;49.482;7.716;2023-03-04T07:08:55;99513.22;;;-0.81;94.92
11542;BME280;5827;49.482;7.716;2023-03-04T07:10:56;99511.78;;;-0.75;94.95
11542;BME280;5827;49.482;7.716;2023-03-04T07:12:58;99510.72;;;-0.64;94.67
11542;BME280;5827;49.482;7.716;2023-03-04T07:14:59;99523.63;;;-0.53;93.89
11542;BME280;5827;49.482;7.716;2023-03-04T07:17:01;99524.13;;;-0.93;94.16
11542;BME280;5827;49.482;7.716;2023-03-04T07:19:04;99521.84;;;-0.70;95.53
11542;BME280;5827;49.482;7.716;2023-03-04T07:21:06;99524.25;;;-0.59;95.15
11542;BME280;5827;49.482;7.716;2023-03-04T07:23:08;99532.88;;;-0.49;94.94
11542;BME280;5827;49.482;7.716;2023-03-04T07:25:09;99531.47;;;-0.61;94.69
11542;BME280;5827;49.482;7.716;2023-03-04T07:27:11;99534.91;;;-0.43;95.33
11542;BME280;5827;49.482;7.716;2023-03-04T07:29:12;99530.03;;;-0.30;94.88
11542;BME280;5827;49.482;7.716;2023-03-04T07:31:20;99534.22;;;-0.19;95.37
11542;BME280;5827;49.482;7.716;2023-03-04T07:33:22;99533.22;;;-0.26;95.91
11542;BME280;5827;49.482;7.716;2023-03-04T07:35:25;99529.63;;;-0.17;95.04
11542;BME280;5827;49.482;7.716;2023-03-04T07:37:26;99538.56;;;-0.10;95.29
11542;BME280;5827;49.482;7.716;2023-03-04T07:39:28;99541.25;;;-0.02;95.28
11542;BME280;5827;49.482;7.716;2023-03-04T07:41:30;99545.91;;;0.05;94.66
11542;BME280;5827;49.482;7.716;2023-03-04T07:43:35;99542.28;;;0.06;94.69
11542;BME280;5827;49.482;7.716;2023-03-04T07:45:36;99543.50;;;0.19;94.73
11542;BME280;5827;49.482;7.716;2023-03-04T07:47:38;99539.88;;;0.20;95.42
11542;BME280;5827;49.482;7.716;2023-03-04T07:49:40;99550.13;;;0.32;94.45
11542;BME280;5827;49.482;7.716;2023-03-04T07:51:43;99548.00;;;0.35;94.34
11542;BME280;5827;49.482;7.716;2023-03-04T07:53:46;99545.59;;;0.50;94.51
11542;BME280;5827;49.482;7.716;2023-03-04T07:55:49;99551.72;;;0.59;94.34
11542;BME280;5827;49.482;7.716;2023-03-04T07:57:50;99544.81;;;0.58;94.47
11542;BME280;5827;49.482;7.716;2023-03-04T07:59:52;99554.72;;;0.72;93.87
11542;BME280;5827;49.482;7.716;2023-03-04T08:01:53;99554.06;;;0.70;93.50
11542;BME280;5827;49.482;7.716;2023-03-04T08:03:55;99555.66;;;0.55;94.66
11542;BME280;5827;49.482;7.716;2023-03-04T08:05:56;99542.19;;;0.66;96.06
11542;BME280;5827;49.482;7.716;2023-03-04T08:07:59;99548.38;;;0.99;94.57
11542;BME280;5827;49.482;7.716;2023-03-04T08:10:01;99549.22;;;1.16;94.15
11542;BME280;5827;49.482;7.716;2023-03-04T08:12:02;99550.38;;;1.30;94.01
11542;BME280;5827;49.482;7.716;2023-03-04T08:14:04;99543.28;;;1.30;93.64
11542;BME280;5827;49.482;7.716;2023-03-04T08:16:06;99541.13;;;1.42;93.04
11542;BME280;5827;49.482;7.716;2023-03-04T08:18:08;99554.81;;;1.37;92.24
11542;BME280;5827;49.482;7.716;2023-03-04T08:20:11;99549.22;;;1.48;92.18
11542;BME280;5827;49.482;7.716;2023-03-04T08:22:12;99551.19;;;1.63;92.17
11542;BME280;5827;49.482;7.716;2023-03-04T08:24:15;99553.66;;;1.72;92.28
11542;BME280;5827;49.482;7.716;2023-03-04T08:26:18;99545.91;;;1.63;91.15
11542;BME280;5827;49.482;7.716;2023-03-04T08:28:20;99554.47;;;1.73;92.39
11542;BME280;5827;49.482;7.716;2023-03-04T08:30:22;99546.25;;;1.68;92.61
11542;BME280;5827;49.482;7.716;2023-03-04T08:32:23;99539.44;;;1.82;92.39
11542;BME280;5827;49.482;7.716;2023-03-04T08:34:26;99544.91;;;1.80;92.95
11542;BME280;5827;49.482;7.716;2023-03-04T08:36:28;99553.09;;;2.01;92.43
11542;BME280;5827;49.482;7.716;2023-03-04T08:38:29;99549.31;;;2.04;92.46
11542;BME280;5827;49.482;7.716;2023-03-04T08:40:33;99549.78;;;2.16;92.28
11542;BME280;5827;49.482;7.716;2023-03-04T08:42:34;99550.44;;;2.18;93.00
11542;BME280;5827;49.482;7.716;2023-03-04T08:44:36;99542.19;;;2.13;93.20
11542;BME280;5827;49.482;7.716;2023-03-04T08:46:39;99542.84;;;2.15;94.05
11542;BME280;5827;49.482;7.716;2023-03-04T08:48:41;99534.03;;;2.31;94.06
11542;BME280;5827;49.482;7.716;2023-03-04T08:50:43;99532.19;;;2.39;93.88
11542;BME280;5827;49.482;7.716;2023-03-04T08:52:45;99540.75;;;2.41;94.75
11542;BME280;5827;49.482;7.716;2023-03-04T08:54:46;99542.72;;;2.47;94.38
11542;BME280;5827;49.482;7.716;2023-03-04T08:56:49;99539.88;;;2.57;94.06
11542;BME280;5827;49.482;7.716;2023-03-04T08:58:51;99538.66;;;2.68;93.04
11542;BME280;5827;49.482;7.716;2023-03-04T09:00:52;99538.63;;;2.76;93.46
11542;BME280;5827;49.482;7.716;2023-03-04T09:02:53;99544.50;;;2.86;93.30
11542;BME280;5827;49.482;7.716;2023-03-04T09:04:55;99546.94;;;2.96;92.74
11542;BME280;5827;49.482;7.716;2023-03-04T09:06:57;99549.38;;;2.43;93.63
11542;BME280;5827;49.482;7.716;2023-03-04T09:08:58;99542.19;;;2.52;94.08
11542;BME280;5827;49.482;7.716;2023-03-04T09:11:01;99543.78;;;2.69;94.10
11542;BME280;5827;49.482;7.716;2023-03-04T09:13:04;99544.94;;;2.75;93.48
11542;BME280;5827;49.482;7.716;2023-03-04T09:15:06;99546.63;;;2.91;93.24
11542;BME280;5827;49.482;7.716;2023-03-04T09:17:08;99544.63;;;2.93;92.70
11542;BME280;5827;49.482;7.716;2023-03-04T09:19:10;99543.94;;;2.99;92.93
11542;BME280;5827;49.482;7.716;2023-03-04T09:21:11;99549.94;;;3.16;93.25
11542;BME280;5827;49.482;7.716;2023-03-04T09:23:13;99548.72;;;3.26;92.58
11542;BME280;5827;49.482;7.716;2023-03-04T09:25:14;99553.25;;;3.41;92.40
11542;BME280;5827;49.482;7.716;2023-03-04T09:27:16;99547.66;;;3.36;91.35
11542;BME280;5827;49.482;7.716;2023-03-04T09:29:19;99555.38;;;3.45;92.82
11542;BME280;5827;49.482;7.716;2023-03-04T09:31:21;99561.28;;;3.47;92.79
11542;BME280;5827;49.482;7.716;2023-03-04T09:33:23;99556.59;;;3.58;92.66
11542;BME280;5827;49.482;7.716;2023-03-04T09:35:24;99558.34;;;3.65;92.00
11542;BME280;5827;49.482;7.716;2023-03-04T09:37:26;99551.13;;;3.74;92.23
11542;BME280;5827;49.482;7.716;2023-03-04T09:39:27;99555.00;;;3.86;92.96
11542;BME280;5827;49.482;7.716;2023-03-04T09:41:35;99556.28;;;3.90;92.43
11542;BME280;5827;49.482;7.716;2023-03-04T09:43:38;99552.63;;;3.76;93.41
11542;BME280;5827;49.482;7.716;2023-03-04T09:45:44;99552.38;;;4.01;93.34
11542;BME280;5827;49.482;7.716;2023-03-04T09:47:48;99554.88;;;4.17;93.13
11542;BME280;5827;49.482;7.716;2023-03-04T09:49:54;99558.69;;;4.29;92.51
11542;BME280;5827;49.482;7.716;2023-03-04T09:52:01;99560.78;;;4.34;92.92
11542;BME280;5827;49.482;7.716;2023-03-04T09:54:06;99564.63;;;4.46;91.45
11542;BME280;5827;49.482;7.716;2023-03-04T09:56:09;99563.81;;;4.46;91.92
11542;BME280;5827;49.482;7.716;2023-03-04T09:58:20;99566.19;;;4.55;90.97
11542;BME280;5827;49.482;7.716;2023-03-04T10:00:32;99567.81;;;4.56;91.43
11542;BME280;5827;49.482;7.716;2023-03-04T10:02:44;99572.13;;;4.57;90.33
11542;BME280;5827;49.482;7.716;2023-03-04T10:04:48;99572.94;;;4.58;91.31
11542;BME280;5827;49.482;7.716;2023-03-04T10:06:50;99565.84;;;4.80;92.15
11542;BME280;5827;49.482;7.716;2023-03-04T10:08:56;99567.25;;;4.76;89.31
11542;BME280;5827;49.482;7.716;2023-03-04T10:11:00;99568.41;;;4.88;90.21
11542;BME280;5827;49.482;7.716;2023-03-04T10:13:05;99568.75;;;5.00;89.99
11542;BME280;5827;49.482;7.716;2023-03-04T10:15:21;99569.03;;;4.90;88.74
11542;BME280;5827;49.482;7.716;2023-03-04T10:17:27;99571.38;;;5.15;88.35
11542;BME280;5827;49.482;7.716;2023-03-04T10:19:40;99574.53;;;5.25;86.84
11542;BME280;5827;49.482;7.716;2023-03-04T10:21:49;99578.00;;;5.25;85.69
11542;BME280;5827;49.482;7.716;2023-03-04T10:23:51;99579.84;;;5.25;85.20
11542;BME280;5827;49.482;7.716;2023-03-04T10:25:54;99577.63;;;5.28;85.25
11542;BME280;5827;49.482;7.716;2023-03-04T10:27:58;99574.63;;;5.31;84.66
11542;BME280;5827;49.482;7.716;2023-03-04T10:30:01;99573.06;;;5.44;85.72
11542;BME280;5827;49.482;7.716;2023-03-04T10:32:03;99578.41;;;5.44;82.91
11542;BME280;5827;49.482;7.716;2023-03-04T10:34:05;99574.06;;;5.36;83.25
11542;BME280;5827;49.482;7.716;2023-03-04T10:36:23;99577.91;;;5.55;81.96
11542;BME280;5827;49.482;7.716;2023-03-04T10:38:29;99577.69;;;5.56;81.90
11542;BME280;5827;49.482;7.716;2023-03-04T10:40:37;99579.66;;;5.48;80.90
11542;BME280;5827;49.482;7.716;2023-03-04T10:42:38;99577.38;;;5.66;81.16
11542;BME280;5827;49.482;7.716;2023-03-04T10:44:41;99580.69;;;5.68;80.71
11542;BME280;5827;49.482;7.716;2023-03-04T10:46:45;99583.88;;;5.85;80.50
11542;BME280;5827;49.482;7.716;2023-03-04T10:48:47;99577.78;;;5.91;79.77
11542;BME280;5827;49.482;7.716;2023-03-04T10:50:48;99576.72;;;5.85;80.13
11542;BME280;5827;49.482;7.716;2023-03-04T10:52:51;99578.25;;;5.95;80.63
11542;BME280;5827;49.482;7.716;2023-03-04T10:54:56;99577.50;;;6.01;79.57
11542;BME280;5827;49.482;7.716;2023-03-04T10:57:00;99581.25;;;6.13;78.16
11542;BME280;5827;49.482;7.716;2023-03-04T10:59:31;99575.56;;;6.23;78.62
11542;BME280;5827;49.482;7.716;2023-03-04T11:01:34;99574.13;;;6.20;78.58